sensor_id;sensor_type;location;lat;lon;timestamp;pressure;altitude;pressure_sealevel;temperature
65290;BMP180;51893;59.754;10.110;2023-09-19T00:01:48;99408.00;;;16.80
65290;BMP180;51893;59.754;10.110;2023-09-19T00:04:16;99408.40;;;16.80
65290;BMP180;51893;59.754;10.110;2023-09-19T00:06:47;99398.00;;;16.80
65290;BMP180;51893;59.754;10.110;2023-09-19T00:09:15;99400.60;;;16.80
65290;BMP180;51893;59.754;10.110;2023-09-19T00:11:43;99397.80;;;16.70
65290;BMP180;51893;59.754;10.110;2023-09-19T00:14:12;99395.40;;;16.70
65290;BMP180;51893;59.754;10.110;2023-09-19T00:16:42;99397.20;;;16.70
65290;BMP180;51893;59.754;10.110;2023-09-19T00:19:10;99390.00;;;16.60
65290;BMP180;51893;59.754;10.110;2023-09-19T00:21:39;99380.80;;;16.60
65290;BMP180;51893;59.754;10.110;2023-09-19T00:24:08;99376.40;;;16.60
65290;BMP180;51893;59.754;10.110;2023-09-19T00:26:36;99374.00;;;16.60
65290;BMP180;51893;59.754;10.110;2023-09-19T00:29:06;99367.60;;;16.54
65290;BMP180;51893;59.754;10.110;2023-09-19T00:31:36;99370.80;;;16.50
65290;BMP180;51893;59.754;10.110;2023-09-19T00:34:05;99370.80;;;16.40
65290;BMP180;51893;59.754;10.110;2023-09-19T00:36:34;99364.80;;;16.36
65290;BMP180;51893;59.754;10.110;2023-09-19T00:39:04;99369.20;;;16.20
65290;BMP180;51893;59.754;10.110;2023-09-19T00:41:33;99361.20;;;16.10
65290;BMP180;51893;59.754;10.110;2023-09-19T00:44:04;99355.80;;;16.08
65290;BMP180;51893;59.754;10.110;2023-09-19T00:46:33;99351.40;;;16.00
65290;BMP180;51893;59.754;10.110;2023-09-19T00:49:01;99343.00;;;16.00
65290;BMP180;51893;59.754;10.110;2023-09-19T00:51:29;99342.40;;;16.00
65290;BMP180;51893;59.754;10.110;2023-09-19T00:53:59;99346.60;;;16.00
65290;BMP180;51893;59.754;10.110;2023-09-19T00:56:28;99340.60;;;16.00
65290;BMP180;51893;59.754;10.110;2023-09-19T00:58:57;99338.00;;;16.00
65290;BMP180;51893;59.754;10.110;2023-09-19T01:01:25;99336.80;;;16.06
65290;BMP180;51893;59.754;10.110;2023-09-19T01:03:53;99326.00;;;16.10
65290;BMP180;51893;59.754;10.110;2023-09-19T01:06:22;99319.20;;;16.10
65290;BMP180;51893;59.754;10.110;2023-09-19T01:08:50;99313.80;;;16.20
65290;BMP180;51893;59.754;10.110;2023-09-19T01:11:33;99312.60;;;16.22
65290;BMP180;51893;59.754;10.110;2023-09-19T01:17:25;99298.60;;;16.30
65290;BMP180;51893;59.754;10.110;2023-09-19T01:23:59;99302.60;;;16.34
65290;BMP180;51893;59.754;10.110;2023-09-19T01:30:14;99287.40;;;16.40
65290;BMP180;51893;59.754;10.110;2023-09-19T01:32:45;99280.60;;;16.40
65290;BMP180;51893;59.754;10.110;2023-09-19T01:35:14;99280.00;;;16.40
65290;BMP180;51893;59.754;10.110;2023-09-19T01:37:42;99273.60;;;16.40
65290;BMP180;51893;59.754;10.110;2023-09-19T01:40:19;99268.20;;;16.40
65290;BMP180;51893;59.754;10.110;2023-09-19T01:43:10;99267.00;;;16.40
65290;BMP180;51893;59.754;10.110;2023-09-19T01:46:21;99253.00;;;16.40
65290;BMP180;51893;59.754;10.110;2023-09-19T01:51:37;99259.40;;;16.40
65290;BMP180;51893;59.754;10.110;2023-09-19T01:54:12;99257.00;;;16.30
65290;BMP180;51893;59.754;10.110;2023-09-19T01:57:22;99252.40;;;16.30
65290;BMP180;51893;59.754;10.110;2023-09-19T01:59:54;99231.40;;;16.30
65290;BMP180;51893;59.754;10.110;2023-09-19T02:02:27;99233.20;;;16.30
65290;BMP180;51893;59.754;10.110;2023-09-19T02:04:58;99224.00;;;16.30
65290;BMP180;51893;59.754;10.110;2023-09-19T02:07:26;99223.00;;;16.30
65290;BMP180;51893;59.754;10.110;2023-09-19T02:09:55;99214.60;;;16.30
65290;BMP180;51893;59.754;10.110;2023-09-19T02:12:23;99218.20;;;16.36
65290;BMP180;51893;59.754;10.110;2023-09-19T02:14:51;99217.60;;;16.40
65290;BMP180;51893;59.754;10.110;2023-09-19T02:17:19;99206.00;;;16.40
65290;BMP180;51893;59.754;10.110;2023-09-19T02:19:47;99198.60;;;16.40
65290;BMP180;51893;59.754;10.110;2023-09-19T02:22:15;99192.40;;;16.40
65290;BMP180;51893;59.754;10.110;2023-09-19T02:24:44;99176.80;;;16.46
65290;BMP180;51893;59.754;10.110;2023-09-19T02:27:14;99166.60;;;16.40
65290;BMP180;51893;59.754;10.110;2023-09-19T02:29:44;99165.00;;;16.40
65290;BMP180;51893;59.754;10.110;2023-09-19T02:32:12;99159.60;;;16.40
65290;BMP180;51893;59.754;10.110;2023-09-19T02:34:40;99148.60;;;16.50
65290;BMP180;51893;59.754;10.110;2023-09-19T02:37:10;99134.40;;;16.50
65290;BMP180;51893;59.754;10.110;2023-09-19T02:39:38;99131.60;;;16.50
65290;BMP180;51893;59.754;10.110;2023-09-19T02:42:07;99116.60;;;16.50
65290;BMP180;51893;59.754;10.110;2023-09-19T02:44:35;99113.00;;;16.50
65290;BMP180;51893;59.754;10.110;2023-09-19T02:47:04;99109.00;;;16.50
65290;BMP180;51893;59.754;10.110;2023-09-19T02:49:32;99102.40;;;16.50
65290;BMP180;51893;59.754;10.110;2023-09-19T02:52:00;99100.40;;;16.50
65290;BMP180;51893;59.754;10.110;2023-09-19T02:54:29;99089.20;;;16.50
65290;BMP180;51893;59.754;10.110;2023-09-19T02:56:58;99070.60;;;16.50
65290;BMP180;51893;59.754;10.110;2023-09-19T02:59:27;99063.80;;;16.50
65290;BMP180;51893;59.754;10.110;2023-09-19T03:01:59;99054.00;;;16.50
65290;BMP180;51893;59.754;10.110;2023-09-19T03:04:28;99042.80;;;16.50
65290;BMP180;51893;59.754;10.110;2023-09-19T03:06:57;99034.80;;;16.50
65290;BMP180;51893;59.754;10.110;2023-09-19T03:09:28;99025.00;;;16.50
65290;BMP180;51893;59.754;10.110;2023-09-19T03:11:56;99014.80;;;16.50
65290;BMP180;51893;59.754;10.110;2023-09-19T03:14:24;99003.00;;;16.48
65290;BMP180;51893;59.754;10.110;2023-09-19T03:16:52;98996.40;;;16.46
65290;BMP180;51893;59.754;10.110;2023-09-19T03:19:20;98992.40;;;16.40
65290;BMP180;51893;59.754;10.110;2023-09-19T03:21:52;98972.20;;;16.40
65290;BMP180;51893;59.754;10.110;2023-09-19T03:24:21;98959.60;;;16.40
65290;BMP180;51893;59.754;10.110;2023-09-19T03:26:49;98949.40;;;16.40
65290;BMP180;51893;59.754;10.110;2023-09-19T03:29:17;98938.80;;;16.40
65290;BMP180;51893;59.754;10.110;2023-09-19T03:31:46;98931.60;;;16.36
65290;BMP180;51893;59.754;10.110;2023-09-19T03:34:14;98916.60;;;16.40
65290;BMP180;51893;59.754;10.110;2023-09-19T03:36:43;98910.20;;;16.34
65290;BMP180;51893;59.754;10.110;2023-09-19T03:39:11;98903.20;;;16.30
65290;BMP180;51893;59.754;10.110;2023-09-19T03:41:40;98890.00;;;16.30
65290;BMP180;51893;59.754;10.110;2023-09-19T03:44:09;98867.80;;;16.30
65290;BMP180;51893;59.754;10.110;2023-09-19T03:46:37;98866.00;;;16.30
65290;BMP180;51893;59.754;10.110;2023-09-19T03:49:08;98855.00;;;16.30
65290;BMP180;51893;59.754;10.110;2023-09-19T03:51:38;98840.80;;;16.30
65290;BMP180;51893;59.754;10.110;2023-09-19T03:54:08;98826.00;;;16.30
65290;BMP180;51893;59.754;10.110;2023-09-19T03:56:38;98819.00;;;16.20
65290;BMP180;51893;59.754;10.110;2023-09-19T03:59:08;98807.20;;;16.22
65290;BMP180;51893;59.754;10.110;2023-09-19T04:01:37;98787.20;;;16.24
65290;BMP180;51893;59.754;10.110;2023-09-19T04:04:06;98782.00;;;16.30
65290;BMP180;51893;59.754;10.110;2023-09-19T04:06:36;98778.40;;;16.30
65290;BMP180;51893;59.754;10.110;2023-09-19T04:09:05;98782.40;;;16.30
65290;BMP180;51893;59.754;10.110;2023-09-19T04:11:34;98773.20;;;16.30
65290;BMP180;51893;59.754;10.110;2023-09-19T04:14:03;98749.40;;;16.30
65290;BMP180;51893;59.754;10.110;2023-09-19T04:16:32;98740.00;;;16.30
65290;BMP180;51893;59.754;10.110;2023-09-19T04:19:00;98750.40;;;16.30
65290;BMP180;51893;59.754;10.110;2023-09-19T04:21:28;98741.60;;;16.30
65290;BMP180;51893;59.754;10.110;2023-09-19T04:23:57;98722.80;;;16.34
65290;BMP180;51893;59.754;10.110;2023-09-19T04:26:25;98704.80;;;16.40
65290;BMP180;51893;59.754;10.110;2023-09-19T04:28:54;98681.40;;;16.40
65290;BMP180;51893;59.754;10.110;2023-09-19T04:31:25;98666.80;;;16.44
65290;BMP180;51893;59.754;10.110;2023-09-19T04:33:53;98660.40;;;16.50
65290;BMP180;51893;59.754;10.110;2023-09-19T04:36:21;98632.40;;;16.50
65290;BMP180;51893;59.754;10.110;2023-09-19T04:39:03;98623.00;;;16.50
65290;BMP180;51893;59.754;10.110;2023-09-19T04:41:35;98635.80;;;16.50
65290;BMP180;51893;59.754;10.110;2023-09-19T04:44:05;98714.60;;;16.50
65290;BMP180;51893;59.754;10.110;2023-09-19T04:46:34;98727.00;;;16.50
65290;BMP180;51893;59.754;10.110;2023-09-19T04:49:03;98706.20;;;16.44
65290;BMP180;51893;59.754;10.110;2023-09-19T04:51:31;98683.00;;;16.54
65290;BMP180;51893;59.754;10.110;2023-09-19T04:54:02;98685.20;;;16.60
65290;BMP180;51893;59.754;10.110;2023-09-19T04:56:31;98694.20;;;16.66
65290;BMP180;51893;59.754;10.110;2023-09-19T04:59:02;98705.00;;;16.70
65290;BMP180;51893;59.754;10.110;2023-09-19T05:01:30;98708.80;;;16.70
65290;BMP180;51893;59.754;10.110;2023-09-19T05:03:59;98709.00;;;16.70
65290;BMP180;51893;59.754;10.110;2023-09-19T05:06:29;98703.40;;;16.80
65290;BMP180;51893;59.754;10.110;2023-09-19T05:08:58;98704.00;;;16.80
65290;BMP180;51893;59.754;10.110;2023-09-19T05:11:28;98709.80;;;16.86
65290;BMP180;51893;59.754;10.110;2023-09-19T05:13:58;98716.60;;;16.90
65290;BMP180;51893;59.754;10.110;2023-09-19T05:16:30;98709.20;;;16.90
65290;BMP180;51893;59.754;10.110;2023-09-19T05:19:02;98710.20;;;16.90
65290;BMP180;51893;59.754;10.110;2023-09-19T05:21:30;98698.00;;;16.90
65290;BMP180;51893;59.754;10.110;2023-09-19T05:23:59;98703.20;;;16.86
65290;BMP180;51893;59.754;10.110;2023-09-19T05:26:27;98699.40;;;16.80
65290;BMP180;51893;59.754;10.110;2023-09-19T05:28:56;98694.60;;;16.70
65290;BMP180;51893;59.754;10.110;2023-09-19T05:31:24;98693.40;;;16.60
65290;BMP180;51893;59.754;10.110;2023-09-19T05:33:54;98691.00;;;16.52
65290;BMP180;51893;59.754;10.110;2023-09-19T05:36:24;98682.00;;;16.46
65290;BMP180;51893;59.754;10.110;2023-09-19T05:38:52;98669.20;;;16.40
65290;BMP180;51893;59.754;10.110;2023-09-19T05:41:21;98666.60;;;16.30
65290;BMP180;51893;59.754;10.110;2023-09-19T05:43:51;98660.80;;;16.30
65290;BMP180;51893;59.754;10.110;2023-09-19T05:46:19;98668.00;;;16.30
65290;BMP180;51893;59.754;10.110;2023-09-19T05:48:47;98663.20;;;16.30
65290;BMP180;51893;59.754;10.110;2023-09-19T05:51:18;98665.80;;;16.30
65290;BMP180;51893;59.754;10.110;2023-09-19T05:53:47;98658.20;;;16.20
65290;BMP180;51893;59.754;10.110;2023-09-19T05:56:16;98652.00;;;16.18
65290;BMP180;51893;59.754;10.110;2023-09-19T05:58:46;98659.20;;;16.10
65290;BMP180;51893;59.754;10.110;2023-09-19T06:01:15;98660.60;;;16.04
65290;BMP180;51893;59.754;10.110;2023-09-19T06:03:44;98664.60;;;16.00
65290;BMP180;51893;59.754;10.110;2023-09-19T06:06:12;98672.40;;;16.00
65290;BMP180;51893;59.754;10.110;2023-09-19T06:08:41;98676.20;;;16.00
65290;BMP180;51893;59.754;10.110;2023-09-19T06:11:14;98685.40;;;16.00
65290;BMP180;51893;59.754;10.110;2023-09-19T06:13:42;98688.80;;;16.00
65290;BMP180;51893;59.754;10.110;2023-09-19T06:16:10;98692.60;;;15.90
65290;BMP180;51893;59.754;10.110;2023-09-19T06:18:38;98696.60;;;15.90
65290;BMP180;51893;59.754;10.110;2023-09-19T06:21:09;98701.40;;;15.80
65290;BMP180;51893;59.754;10.110;2023-09-19T06:23:39;98704.80;;;15.80
65290;BMP180;51893;59.754;10.110;2023-09-19T06:26:09;98711.00;;;15.80
65290;BMP180;51893;59.754;10.110;2023-09-19T06:28:37;98711.60;;;15.70
65290;BMP180;51893;59.754;10.110;2023-09-19T06:31:05;98704.20;;;15.66
65290;BMP180;51893;59.754;10.110;2023-09-19T06:33:40;98706.80;;;15.62
65290;BMP180;51893;59.754;10.110;2023-09-19T06:36:08;98706.60;;;15.66
65290;BMP180;51893;59.754;10.110;2023-09-19T06:38:36;98709.20;;;15.70
65290;BMP180;51893;59.754;10.110;2023-09-19T06:41:06;98718.00;;;15.70
65290;BMP180;51893;59.754;10.110;2023-09-19T06:43:36;98729.40;;;15.70
65290;BMP180;51893;59.754;10.110;2023-09-19T06:46:06;98728.20;;;15.70
65290;BMP180;51893;59.754;10.110;2023-09-19T06:48:35;98722.20;;;15.70
65290;BMP180;51893;59.754;10.110;2023-09-19T06:51:03;98722.40;;;15.70
65290;BMP180;51893;59.754;10.110;2023-09-19T06:53:33;98727.20;;;15.70
65290;BMP180;51893;59.754;10.110;2023-09-19T06:56:08;98718.60;;;15.70
65290;BMP180;51893;59.754;10.110;2023-09-19T06:58:38;98723.20;;;15.70
65290;BMP180;51893;59.754;10.110;2023-09-19T07:01:06;98725.40;;;15.70
65290;BMP180;51893;59.754;10.110;2023-09-19T07:03:35;98731.20;;;15.70
65290;BMP180;51893;59.754;10.110;2023-09-19T07:06:04;98720.40;;;15.72
65290;BMP180;51893;59.754;10.110;2023-09-19T07:08:32;98717.00;;;15.80
65290;BMP180;51893;59.754;10.110;2023-09-19T07:11:00;98710.80;;;15.80
65290;BMP180;51893;59.754;10.110;2023-09-19T07:13:29;98707.40;;;15.80
65290;BMP180;51893;59.754;10.110;2023-09-19T07:15:59;98706.20;;;15.84
65290;BMP180;51893;59.754;10.110;2023-09-19T07:18:27;98702.60;;;15.90
65290;BMP180;51893;59.754;10.110;2023-09-19T07:20:58;98699.40;;;15.94
65290;BMP180;51893;59.754;10.110;2023-09-19T07:23:32;98701.00;;;16.00
65290;BMP180;51893;59.754;10.110;2023-09-19T07:26:03;98705.40;;;16.02
65290;BMP180;51893;59.754;10.110;2023-09-19T07:28:33;98714.00;;;16.10
65290;BMP180;51893;59.754;10.110;2023-09-19T07:31:03;98710.40;;;16.20
65290;BMP180;51893;59.754;10.110;2023-09-19T07:33:34;98709.80;;;16.22
65290;BMP180;51893;59.754;10.110;2023-09-19T07:36:03;98706.60;;;16.30
65290;BMP180;51893;59.754;10.110;2023-09-19T07:38:31;98703.40;;;16.30
65290;BMP180;51893;59.754;10.110;2023-09-19T07:41:02;98705.60;;;16.30
65290;BMP180;51893;59.754;10.110;2023-09-19T07:43:30;98705.20;;;16.40
65290;BMP180;51893;59.754;10.110;2023-09-19T07:46:07;98698.20;;;16.46
65290;BMP180;51893;59.754;10.110;2023-09-19T07:48:38;98696.40;;;16.56
65290;BMP180;51893;59.754;10.110;2023-09-19T07:51:08;98702.60;;;16.60
65290;BMP180;51893;59.754;10.110;2023-09-19T07:53:37;98704.60;;;16.60
65290;BMP180;51893;59.754;10.110;2023-09-19T07:56:10;98706.00;;;16.50
65290;BMP180;51893;59.754;10.110;2023-09-19T07:58:40;98709.80;;;16.50
65290;BMP180;51893;59.754;10.110;2023-09-19T08:01:13;98715.80;;;16.40
65290;BMP180;51893;59.754;10.110;2023-09-19T08:03:42;98719.40;;;16.38
65290;BMP180;51893;59.754;10.110;2023-09-19T08:06:13;98723.80;;;16.30
65290;BMP180;51893;59.754;10.110;2023-09-19T08:08:41;98728.00;;;16.30
65290;BMP180;51893;59.754;10.110;2023-09-19T08:11:09;98723.40;;;16.30
65290;BMP180;51893;59.754;10.110;2023-09-19T08:13:42;98725.00;;;16.40
65290;BMP180;51893;59.754;10.110;2023-09-19T08:16:16;98719.00;;;16.50
65290;BMP180;51893;59.754;10.110;2023-09-19T08:18:48;98725.40;;;16.60
65290;BMP180;51893;59.754;10.110;2023-09-19T08:21:24;98721.20;;;16.60
65290;BMP180;51893;59.754;10.110;2023-09-19T08:23:53;98719.20;;;16.70
65290;BMP180;51893;59.754;10.110;2023-09-19T08:26:24;98719.20;;;16.80
65290;BMP180;51893;59.754;10.110;2023-09-19T08:28:53;98721.00;;;16.90
65290;BMP180;51893;59.754;10.110;2023-09-19T08:31:23;98732.00;;;16.80
65290;BMP180;51893;59.754;10.110;2023-09-19T08:33:53;98745.40;;;16.80
65290;BMP180;51893;59.754;10.110;2023-09-19T08:36:24;98747.00;;;16.70
65290;BMP180;51893;59.754;10.110;2023-09-19T08:38:52;98744.80;;;16.70
65290;BMP180;51893;59.754;10.110;2023-09-19T08:41:20;98746.00;;;16.62
65290;BMP180;51893;59.754;10.110;2023-09-19T08:43:48;98751.60;;;16.60
65290;BMP180;51893;59.754;10.110;2023-09-19T08:46:25;98751.80;;;16.60
65290;BMP180;51893;59.754;10.110;2023-09-19T08:49:04;98760.80;;;16.60
65290;BMP180;51893;59.754;10.110;2023-09-19T08:51:43;98766.20;;;16.50
65290;BMP180;51893;59.754;10.110;2023-09-19T08:54:35;98773.00;;;16.44
65290;BMP180;51893;59.754;10.110;2023-09-19T08:57:07;98783.20;;;16.40
65290;BMP180;51893;59.754;10.110;2023-09-19T08:59:41;98800.20;;;16.32
65290;BMP180;51893;59.754;10.110;2023-09-19T09:02:12;98801.40;;;16.30
65290;BMP180;51893;59.754;10.110;2023-09-19T09:04:43;98798.60;;;16.30
65290;BMP180;51893;59.754;10.110;2023-09-19T09:07:16;98804.60;;;16.30
65290;BMP180;51893;59.754;10.110;2023-09-19T09:09:47;98799.60;;;16.30
65290;BMP180;51893;59.754;10.110;2023-09-19T09:12:16;98799.40;;;16.30
65290;BMP180;51893;59.754;10.110;2023-09-19T09:14:45;98805.80;;;16.30
65290;BMP180;51893;59.754;10.110;2023-09-19T09:17:18;98814.20;;;16.30
65290;BMP180;51893;59.754;10.110;2023-09-19T09:19:49;98820.60;;;16.30
65290;BMP180;51893;59.754;10.110;2023-09-19T09:22:21;98826.40;;;16.30
65290;BMP180;51893;59.754;10.110;2023-09-19T09:27:22;98826.40;;;16.30
65290;BMP180;51893;59.754;10.110;2023-09-19T09:29:53;98830.60;;;16.30
65290;BMP180;51893;59.754;10.110;2023-09-19T09:32:28;98834.00;;;16.30
65290;BMP180;51893;59.754;10.110;2023-09-19T09:35:00;98845.20;;;16.30
65290;BMP180;51893;59.754;10.110;2023-09-19T09:37:29;98856.00;;;16.30
65290;BMP180;51893;59.754;10.110;2023-09-19T09:40:01;98864.80;;;16.30
65290;BMP180;51893;59.754;10.110;2023-09-19T09:42:45;98863.80;;;16.30
65290;BMP180;51893;59.754;10.110;2023-09-19T09:45:23;98866.60;;;16.30
65290;BMP180;51893;59.754;10.110;2023-09-19T09:48:05;98868.20;;;16.30
65290;BMP180;51893;59.754;10.110;2023-09-19T09:50:48;98865.60;;;16.40
65290;BMP180;51893;59.754;10.110;2023-09-19T09:53:26;98867.40;;;16.50
65290;BMP180;51893;59.754;10.110;2023-09-19T09:56:08;98866.40;;;16.60
65290;BMP180;51893;59.754;10.110;2023-09-19T09:58:58;98870.80;;;16.70
65290;BMP180;51893;59.754;10.110;2023-09-19T10:01:46;98884.80;;;16.80
65290;BMP180;51893;59.754;10.110;2023-09-19T10:04:28;98892.80;;;16.76
65290;BMP180;51893;59.754;10.110;2023-09-19T10:07:04;98888.60;;;16.70
65290;BMP180;51893;59.754;10.110;2023-09-19T10:09:47;98880.80;;;16.64
65290;BMP180;51893;59.754;10.110;2023-09-19T10:12:20;98886.40;;;16.70
65290;BMP180;51893;59.754;10.110;2023-09-19T10:14:51;98893.00;;;16.60
65290;BMP180;51893;59.754;10.110;2023-09-19T10:17:22;98902.80;;;16.60
65290;BMP180;51893;59.754;10.110;2023-09-19T10:19:55;98914.20;;;16.70
65290;BMP180;51893;59.754;10.110;2023-09-19T10:22:29;98915.80;;;16.70
65290;BMP180;51893;59.754;10.110;2023-09-19T10:25:02;98919.00;;;16.66
65290;BMP180;51893;59.754;10.110;2023-09-19T10:27:34;98922.60;;;16.60
65290;BMP180;51893;59.754;10.110;2023-09-19T10:30:09;98928.20;;;16.60
65290;BMP180;51893;59.754;10.110;2023-09-19T10:32:41;98933.60;;;16.50
65290;BMP180;51893;59.754;10.110;2023-09-19T10:35:11;98936.20;;;16.50
65290;BMP180;51893;59.754;10.110;2023-09-19T10:37:47;98941.40;;;16.60
65290;BMP180;51893;59.754;10.110;2023-09-19T10:40:21;98946.80;;;16.60
65290;BMP180;51893;59.754;10.110;2023-09-19T10:43:01;98947.60;;;16.60
65290;BMP180;51893;59.754;10.110;2023-09-19T10:45:34;98949.20;;;16.60
65290;BMP180;51893;59.754;10.110;2023-09-19T10:48:03;98941.40;;;16.60
65290;BMP180;51893;59.754;10.110;2023-09-19T10:51:20;98939.80;;;16.62
65290;BMP180;51893;59.754;10.110;2023-09-19T10:53:59;98949.00;;;16.80
65290;BMP180;51893;59.754;10.110;2023-09-19T10:56:38;98957.00;;;16.90
65290;BMP180;51893;59.754;10.110;2023-09-19T10:59:11;98957.80;;;16.90
65290;BMP180;51893;59.754;10.110;2023-09-19T11:01:49;98957.00;;;16.90
65290;BMP180;51893;59.754;10.110;2023-09-19T11:04:33;98965.20;;;16.90
65290;BMP180;51893;59.754;10.110;2023-09-19T11:07:07;98972.40;;;16.86
65290;BMP180;51893;59.754;10.110;2023-09-19T11:09:55;98976.00;;;16.80
65290;BMP180;51893;59.754;10.110;2023-09-19T11:15:09;98976.00;;;17.00
65290;BMP180;51893;59.754;10.110;2023-09-19T11:17:40;98981.60;;;17.00
65290;BMP180;51893;59.754;10.110;2023-09-19T11:30:47;99006.40;;;16.76
65290;BMP180;51893;59.754;10.110;2023-09-19T11:33:26;99017.60;;;16.70
65290;BMP180;51893;59.754;10.110;2023-09-19T11:36:18;99021.40;;;16.70
65290;BMP180;51893;59.754;10.110;2023-09-19T11:46:34;99020.00;;;16.60
65290;BMP180;51893;59.754;10.110;2023-09-19T11:49:09;99023.80;;;16.60
65290;BMP180;51893;59.754;10.110;2023-09-19T11:51:45;99026.00;;;16.70
65290;BMP180;51893;59.754;10.110;2023-09-19T11:54:15;99027.00;;;16.70
65290;BMP180;51893;59.754;10.110;2023-09-19T11:56:54;99033.80;;;16.70
65290;BMP180;51893;59.754;10.110;2023-09-19T11:59:29;99043.40;;;16.80
65290;BMP180;51893;59.754;10.110;2023-09-19T12:02:04;99045.60;;;16.80
65290;BMP180;51893;59.754;10.110;2023-09-19T12:04:40;99038.00;;;16.80
65290;BMP180;51893;59.754;10.110;2023-09-19T12:07:13;99041.40;;;16.84
65290;BMP180;51893;59.754;10.110;2023-09-19T12:10:06;99053.60;;;17.00
65290;BMP180;51893;59.754;10.110;2023-09-19T12:12:37;99052.00;;;17.10
65290;BMP180;51893;59.754;10.110;2023-09-19T12:15:05;99060.00;;;17.30
65290;BMP180;51893;59.754;10.110;2023-09-19T12:17:39;99061.00;;;17.50
65290;BMP180;51893;59.754;10.110;2023-09-19T12:20:09;99055.00;;;17.70
65290;BMP180;51893;59.754;10.110;2023-09-19T12:22:47;99060.60;;;17.90
65290;BMP180;51893;59.754;10.110;2023-09-19T12:25:17;99066.40;;;18.00
65290;BMP180;51893;59.754;10.110;2023-09-19T12:27:50;99070.80;;;18.10
65290;BMP180;51893;59.754;10.110;2023-09-19T12:30:28;99067.80;;;18.20
65290;BMP180;51893;59.754;10.110;2023-09-19T12:32:57;99069.80;;;18.20
65290;BMP180;51893;59.754;10.110;2023-09-19T12:35:33;99058.20;;;18.40
65290;BMP180;51893;59.754;10.110;2023-09-19T12:38:07;99071.20;;;18.46
65290;BMP180;51893;59.754;10.110;2023-09-19T12:40:39;99067.60;;;18.42
65290;BMP180;51893;59.754;10.110;2023-09-19T12:43:13;99068.60;;;18.50
65290;BMP180;51893;59.754;10.110;2023-09-19T12:45:43;99057.80;;;18.64
65290;BMP180;51893;59.754;10.110;2023-09-19T12:48:26;99062.00;;;18.80
65290;BMP180;51893;59.754;10.110;2023-09-19T12:51:11;99073.80;;;18.80
65290;BMP180;51893;59.754;10.110;2023-09-19T12:53:42;99077.00;;;18.80
65290;BMP180;51893;59.754;10.110;2023-09-19T12:56:14;99086.20;;;18.90
65290;BMP180;51893;59.754;10.110;2023-09-19T12:58:55;99101.60;;;18.70
65290;BMP180;51893;59.754;10.110;2023-09-19T13:01:25;99111.20;;;18.48
65290;BMP180;51893;59.754;10.110;2023-09-19T13:04:18;99106.60;;;18.30
65290;BMP180;51893;59.754;10.110;2023-09-19T13:06:51;99120.20;;;18.02
65290;BMP180;51893;59.754;10.110;2023-09-19T13:09:22;99124.40;;;17.80
65290;BMP180;51893;59.754;10.110;2023-09-19T13:12:35;99121.60;;;17.70
65290;BMP180;51893;59.754;10.110;2023-09-19T13:15:14;99125.60;;;17.60
65290;BMP180;51893;59.754;10.110;2023-09-19T13:17:47;99130.60;;;17.40
65290;BMP180;51893;59.754;10.110;2023-09-19T13:20:28;99126.60;;;17.30
65290;BMP180;51893;59.754;10.110;2023-09-19T13:22:58;99131.40;;;17.20
65290;BMP180;51893;59.754;10.110;2023-09-19T13:25:38;99131.40;;;17.10
65290;BMP180;51893;59.754;10.110;2023-09-19T13:28:08;99125.80;;;17.00
65290;BMP180;51893;59.754;10.110;2023-09-19T13:30:37;99130.00;;;16.94
65290;BMP180;51893;59.754;10.110;2023-09-19T13:33:11;99128.80;;;16.90
65290;BMP180;51893;59.754;10.110;2023-09-19T13:35:42;99128.80;;;16.80
65290;BMP180;51893;59.754;10.110;2023-09-19T13:38:10;99128.40;;;16.80
65290;BMP180;51893;59.754;10.110;2023-09-19T13:40:40;99119.20;;;16.70
65290;BMP180;51893;59.754;10.110;2023-09-19T13:43:11;99116.20;;;16.70
65290;BMP180;51893;59.754;10.110;2023-09-19T13:45:40;99111.80;;;16.70
65290;BMP180;51893;59.754;10.110;2023-09-19T13:48:10;99118.80;;;16.80
65290;BMP180;51893;59.754;10.110;2023-09-19T13:50:40;99117.60;;;16.90
65290;BMP180;51893;59.754;10.110;2023-09-19T13:53:14;99115.60;;;16.98
65290;BMP180;51893;59.754;10.110;2023-09-19T13:55:43;99108.20;;;17.00
65290;BMP180;51893;59.754;10.110;2023-09-19T13:58:11;99098.20;;;17.08
65290;BMP180;51893;59.754;10.110;2023-09-19T14:00:40;99094.20;;;17.00
65290;BMP180;51893;59.754;10.110;2023-09-19T14:03:10;99098.20;;;17.00
65290;BMP180;51893;59.754;10.110;2023-09-19T14:05:40;99097.20;;;17.00
65290;BMP180;51893;59.754;10.110;2023-09-19T14:08:10;99107.20;;;17.00
65290;BMP180;51893;59.754;10.110;2023-09-19T14:10:41;99122.80;;;17.02
65290;BMP180;51893;59.754;10.110;2023-09-19T14:13:10;99112.00;;;17.06
65290;BMP180;51893;59.754;10.110;2023-09-19T14:15:41;99117.80;;;17.00
65290;BMP180;51893;59.754;10.110;2023-09-19T14:18:12;99124.60;;;17.10
65290;BMP180;51893;59.754;10.110;2023-09-19T14:20:40;99134.00;;;17.06
65290;BMP180;51893;59.754;10.110;2023-09-19T14:23:10;99134.40;;;17.02
65290;BMP180;51893;59.754;10.110;2023-09-19T14:25:40;99137.80;;;17.10
65290;BMP180;51893;59.754;10.110;2023-09-19T14:28:09;99133.80;;;17.10
65290;BMP180;51893;59.754;10.110;2023-09-19T14:30:39;99139.00;;;17.10
65290;BMP180;51893;59.754;10.110;2023-09-19T14:33:07;99141.20;;;17.10
65290;BMP180;51893;59.754;10.110;2023-09-19T14:35:37;99143.00;;;17.10
65290;BMP180;51893;59.754;10.110;2023-09-19T14:38:08;99143.20;;;17.10
65290;BMP180;51893;59.754;10.110;2023-09-19T14:40:36;99145.60;;;17.10
65290;BMP180;51893;59.754;10.110;2023-09-19T14:43:05;99138.40;;;17.10
65290;BMP180;51893;59.754;10.110;2023-09-19T14:45:36;99138.80;;;17.10
65290;BMP180;51893;59.754;10.110;2023-09-19T14:48:05;99138.60;;;17.10
65290;BMP180;51893;59.754;10.110;2023-09-19T14:50:37;99148.60;;;17.10
65290;BMP180;51893;59.754;10.110;2023-09-19T14:53:06;99153.20;;;17.16
65290;BMP180;51893;59.754;10.110;2023-09-19T14:55:42;99152.20;;;17.20
65290;BMP180;51893;59.754;10.110;2023-09-19T14:58:14;99157.80;;;17.20
65290;BMP180;51893;59.754;10.110;2023-09-19T15:00:42;99153.60;;;17.30